Latest Weather Observations for Proserpine

IDQ60801

Issued at 7:35 am EST Friday 25 April 2014 (issued every 30 minutes, with the page automatically refreshed every 10 minutes)

About weather observations | Map of weather stations | Latest weather observations for QLD | Other Formats
Station Details ID: 033247 Name: PROSERPINE AIRPORT Lat: -20.49 Lon: 148.56 Height: 19.7 m
Data from the previous 72 hours. | See also: Recent months at Proserpine
Date/Time
EST
Temp
°C
App
Temp
°C
Dew
Point
Rel
Hum
%
Delta-T
°C
Wind Press
QNH
hPa
Press
MSL
hPa
Rain
since 9 am
mm
Dir
 
Spd
km/h
Gust
km/h
Spd
kts
Gust
kts
25/07:30am 21.7 24.7 20.0 90 1.1 S 4 7 2 4 1015.2 - 0.0
25/07:00am 20.5 22.0 19.7 95 0.5 S 11 11 6 6 1014.7 - 0.0
25/06:30am 20.1 21.1 19.4 96 0.4 SSW 13 15 7 8 1014.2 - 0.0
25/06:00am 20.1 21.8 19.4 96 0.4 SSW 9 13 5 7 1013.6 1013.5 0.0
25/05:30am 20.3 23.2 19.8 97 0.3 S 4 6 2 3 1013.3 - 0.0
25/05:00am 20.2 22.4 19.7 97 0.3 S 7 9 4 5 1012.9 - 0.0
25/04:30am 20.2 23.4 19.7 97 0.3 SSW 2 9 1 5 1012.7 - 0.0
25/04:00am 20.2 23.8 19.7 97 0.3 CALM 0 6 0 3 1012.9 - 0.0
25/03:30am 20.4 24.1 19.9 97 0.3 CALM 0 0 0 0 1012.7 - 0.0
25/03:00am 20.0 23.4 19.3 96 0.4 CALM 0 0 0 0 1013.0 1012.9 0.0
25/02:30am 19.9 23.2 19.1 95 0.5 CALM 0 0 0 0 1013.0 - 0.0
25/02:00am 20.1 22.3 19.3 95 0.5 W 6 7 3 4 1013.3 - 0.0
25/01:30am 20.6 22.7 19.3 92 0.8 S 7 9 4 5 1013.5 - 0.0
25/01:00am 20.7 22.8 19.4 92 0.8 SE 7 11 4 6 1013.6 - 0.0
25/12:30am 21.2 23.4 19.7 91 1.0 SSE 7 9 4 5 1014.2 - 0.0
25/12:00am 21.4 23.9 19.9 91 1.0 S 6 7 3 4 1014.6 1014.5 0.0
 
Date/Time
EST
Temp
°C
App
Temp
°C
Dew
Point
Rel
Hum
%
Delta-T
°C
Wind Press
QNH
hPa
Press
MSL
hPa
Rain
since 9 am
mm
Dir
 
Spd
km/h
Gust
km/h
Spd
kts
Gust
kts
24/11:30pm 21.5 24.9 20.1 92 0.9 SW 2 9 1 5 1014.6 - 0.0
24/11:00pm 21.6 24.8 20.4 93 0.8 E 4 7 2 4 1014.7 - 0.0
24/10:30pm 21.7 24.3 20.5 93 0.8 ESE 7 9 4 5 1015.0 - 0.0
24/10:00pm 21.6 24.7 20.2 92 0.9 SSE 4 9 2 5 1014.8 - 0.0
24/09:30pm 21.9 24.6 20.2 90 1.1 S 6 7 3 4 1015.2 - 0.0
24/09:00pm 22.2 24.9 20.7 91 1.0 S 7 9 4 5 1015.0 1014.9 0.0
24/08:30pm 22.6 25.6 20.9 90 1.1 SSE 6 7 3 4 1014.9 - 0.0
24/08:00pm 22.6 24.7 20.9 90 1.1 SE 11 17 6 9 1014.6 - 0.0
24/07:30pm 22.9 24.9 21.5 92 0.9 SSE 13 17 7 9 1014.1 - 0.0
24/07:00pm 22.9 25.8 21.7 93 0.8 ESE 9 11 5 6 1013.7 - 0.0
24/06:30pm 23.2 26.4 21.6 91 1.1 ESE 7 11 4 6 1013.3 - 0.0
24/06:00pm 23.6 26.1 21.7 89 1.3 SE 11 13 6 7 1013.0 1012.8 0.0
24/05:30pm 24.2 26.6 21.5 85 1.8 SSE 11 17 6 9 1012.4 - 0.0
24/05:00pm 24.7 28.0 21.8 84 1.9 ESE 7 11 4 6 1012.2 - 0.0
24/04:30pm 25.0 27.5 21.7 82 2.2 ESE 11 13 6 7 1012.0 - 0.0
24/04:00pm 26.1 28.2 21.7 77 2.9 ESE 13 17 7 9 1011.8 - 0.0
24/03:30pm 25.4 27.5 21.7 80 2.5 SE 13 20 7 11 1011.7 - 0.0
24/03:00pm 25.2 27.6 22.3 84 1.9 S 13 17 7 9 1011.7 1011.6 0.0
24/02:30pm 25.2 27.1 22.1 83 2.1 S 15 19 8 10 1012.0 - 0.0
24/02:00pm 25.7 27.0 21.6 78 2.7 SE 17 24 9 13 1012.1 - 0.0
24/01:30pm 26.1 28.1 22.2 79 2.6 ESE 15 20 8 11 1012.1 - 0.0
24/01:00pm 25.0 27.2 21.9 83 2.1 SSE 13 17 7 9 1012.9 - 0.0
24/12:30pm 25.5 27.7 21.8 80 2.5 SE 13 19 7 10 1013.3 - 0.0
24/12:00pm 24.6 27.6 22.7 89 1.3 S 11 13 6 7 1013.6 1013.5 0.0
24/11:30am 23.8 24.7 21.5 87 1.5 SSE 19 24 10 13 1013.8 - 0.0
24/11:00am 25.0 26.6 22.1 84 1.9 ESE 17 24 9 13 1014.3 - 0.0
24/10:30am 25.6 27.9 22.1 81 2.3 SSE 13 19 7 10 1014.2 - 0.0
24/10:00am 25.0 27.6 22.7 87 1.6 SSE 13 17 7 9 1014.8 - 0.0
24/09:57am 24.7 27.2 22.4 87 1.5 SSE 13 19 7 10 1014.9 - 0.0
24/09:30am 23.6 26.2 22.0 91 1.1 S 11 17 6 9 1015.2 - 0.0
24/09:08am 22.8 25.8 22.0 95 0.5 SSW 9 13 5 7 1015.1 - 0.0
24/09:00am 22.3 24.7 21.6 96 0.5 SSW 11 15 6 8 1015.2 1015.0 7.8
24/08:52am 22.2 24.1 21.4 95 0.5 S 13 19 7 10 1015.2 - 7.8
24/08:30am 22.3 25.1 21.6 96 0.5 S 9 13 5 7 1015.0 - 7.0
24/08:00am 22.0 24.3 21.3 96 0.5 S 11 17 6 9 1014.4 - 7.0
24/07:30am 21.8 24.3 21.1 96 0.5 SSE 9 13 5 7 1013.9 - 7.0
24/07:00am 21.5 23.9 20.8 96 0.5 SE 9 13 5 7 1013.6 - 7.0
24/06:30am 21.6 24.0 20.9 96 0.5 S 9 13 5 7 1013.9 - 6.8
24/06:00am 21.4 23.4 20.7 96 0.5 S 11 17 6 9 1013.4 1013.2 6.8
24/05:30am 21.4 23.7 20.7 96 0.5 SSE 9 13 5 7 1012.9 - 6.8
24/05:07am 21.5 23.5 20.8 96 0.5 S 11 17 6 9 1013.1 - 6.8
24/05:00am 21.5 23.1 20.8 96 0.5 S 13 19 7 10 1013.1 - 6.8
24/04:42am 21.5 23.1 20.8 96 0.5 S 13 19 7 10 1013.2 - 6.8
24/04:30am 21.5 23.1 20.8 96 0.5 S 13 19 7 10 1013.3 - 6.8
24/04:22am 21.5 22.8 20.8 96 0.5 S 15 22 8 12 1013.2 - 6.6
24/04:00am 21.5 22.9 21.0 97 0.3 S 15 20 8 11 1013.1 - 6.6
24/03:38am 21.4 23.1 20.9 97 0.3 SSE 13 19 7 10 1013.0 - 6.6
24/03:30am 21.4 23.1 20.9 97 0.3 SSE 13 17 7 9 1013.1 - 6.6
24/03:00am 21.4 22.7 20.9 97 0.3 SSE 15 22 8 12 1013.1 1013.0 6.4
24/02:58am 21.4 22.7 20.9 97 0.3 SSE 15 24 8 13 1013.1 - 6.2
24/02:31am 21.4 23.1 20.9 97 0.3 SSE 13 19 7 10 1013.3 - 5.6
24/02:30am 21.4 23.1 20.9 97 0.3 SSE 13 19 7 10 1013.2 - 5.4
24/02:00am 21.4 23.1 20.9 97 0.3 SSE 13 20 7 11 1013.4 - 5.2
24/01:30am 21.7 23.4 21.0 96 0.5 S 13 19 7 10 1014.1 - 4.8
24/01:13am 21.6 22.5 20.8 95 0.5 S 17 22 9 12 1014.1 - 4.8
24/01:00am 21.7 22.6 20.9 95 0.5 SSE 17 24 9 13 1014.1 - 4.8
24/12:56am 21.7 22.2 20.9 95 0.5 SSE 19 24 10 13 1014.1 - 4.8
24/12:30am 21.7 22.9 20.7 94 0.6 S 15 22 8 12 1014.6 - 4.8
24/12:19am 21.8 22.7 20.8 94 0.6 S 17 22 9 12 1014.6 - 4.8
24/12:00am 21.8 23.1 20.8 94 0.6 S 15 22 8 12 1014.6 1014.6 4.8
 
Date/Time
EST
Temp
°C
App
Temp
°C
Dew
Point
Rel
Hum
%
Delta-T
°C
Wind Press
QNH
hPa
Press
MSL
hPa
Rain
since 9 am
mm
Dir
 
Spd
km/h
Gust
km/h
Spd
kts
Gust
kts
23/11:30pm 21.7 23.8 20.9 95 0.5 S 11 17 6 9 1014.6 - 4.8
23/11:00pm 21.7 23.4 20.9 95 0.5 SSE 13 15 7 8 1014.9 - 4.8
23/10:30pm 21.8 23.9 21.0 95 0.5 SSE 11 19 6 10 1015.2 - 4.8
23/10:00pm 21.9 24.3 20.9 94 0.7 S 9 13 5 7 1015.7 - 4.6
23/09:37pm 21.9 24.0 20.9 94 0.7 S 11 17 6 9 1015.7 - 4.6
23/09:30pm 22.0 23.8 21.2 95 0.5 S 13 19 7 10 1015.7 - 4.6
23/09:00pm 21.9 23.7 21.1 95 0.5 S 13 19 7 10 1015.8 1015.7 4.6
23/08:49pm 22.0 23.8 21.2 95 0.5 S 13 19 7 10 1015.6 - 4.6
23/08:30pm 22.0 23.9 21.3 96 0.5 S 13 17 7 9 1015.5 - 4.6
23/08:00pm 21.9 23.7 21.2 96 0.5 S 13 17 7 9 1015.1 - 4.2
23/07:30pm 22.0 23.5 21.3 96 0.5 S 15 20 8 11 1015.0 - 3.0
23/07:14pm 22.1 23.2 21.3 95 0.5 SSE 17 24 9 13 1014.6 - 2.2
23/07:00pm 22.1 23.2 21.3 95 0.5 S 17 26 9 14 1014.3 - 1.4
23/06:30pm 22.3 24.6 21.3 94 0.7 S 11 15 6 8 1014.2 - 0.6
23/06:00pm 22.6 24.1 21.2 92 0.9 SSE 15 20 8 11 1013.4 1013.3 0.2
23/05:30pm 23.5 24.9 21.0 86 1.6 SSE 15 20 8 11 1013.0 - 0.0
23/05:10pm 23.8 25.9 20.9 84 1.9 SSE 11 15 6 8 1012.9 - 0.0
23/05:00pm 23.9 26.0 21.0 84 1.9 SE 11 15 6 8 1012.8 - 0.0
23/04:30pm 24.3 25.7 21.0 82 2.2 SSE 15 20 8 11 1012.3 - 0.0
23/04:00pm 25.0 25.9 20.9 78 2.7 SSE 17 22 9 12 1012.7 - 0.0
23/03:30pm 25.3 25.3 21.0 77 2.8 SE 22 28 12 15 1012.6 - 0.0
23/03:00pm 26.2 26.4 21.4 75 3.2 SSE 22 33 12 18 1012.8 1012.7 0.0
23/02:30pm 26.2 26.9 21.6 76 3.1 SSE 20 30 11 16 1013.1 - 0.0
23/02:00pm 26.6 27.7 22.4 78 2.8 SSE 20 28 11 15 1013.1 - 0.0
23/01:30pm 25.7 26.4 21.6 78 2.7 SSE 20 26 11 14 1013.0 - 0.0
23/01:00pm 25.8 26.6 21.7 78 2.7 SSE 20 30 11 16 1013.4 - 0.0
23/12:30pm 25.3 26.1 21.4 79 2.6 S 19 28 10 15 1014.1 - 0.0
23/12:08pm 25.4 26.2 21.3 78 2.7 SSE 19 26 10 14 1014.5 - 0.0
23/12:00pm 25.6 26.7 21.9 80 2.5 S 19 24 10 13 1014.7 1014.7 0.0
23/11:31am 25.8 27.1 21.7 78 2.7 SSE 17 24 9 13 1015.0 - 0.0
23/11:30am 25.9 26.8 21.6 77 2.9 SSE 19 24 10 13 1014.9 - 0.0
23/11:00am 25.9 26.9 21.8 78 2.7 SSE 19 28 10 15 1015.4 - 0.0
23/10:30am 25.6 27.0 21.9 80 2.5 SE 17 28 9 15 1015.6 - 0.0
23/10:00am 25.6 26.6 21.7 79 2.6 SSE 19 26 10 14 1015.3 - 0.0
23/09:41am 25.3 25.9 21.4 79 2.6 S 20 26 11 14 1015.5 - 0.0
23/09:30am 25.2 26.2 21.1 78 2.7 SSE 17 26 9 14 1015.7 - 0.0
23/09:17am 24.9 26.1 21.4 81 2.3 SSE 17 22 9 12 1015.7 - 0.0
23/09:00am 24.6 25.2 21.1 81 2.3 SSE 19 26 10 14 1015.5 1015.4 0.8
23/08:30am 24.2 25.7 21.3 84 1.9 S 15 19 8 10 1015.2 - 0.8
23/08:00am 23.8 25.6 21.1 85 1.8 SSE 13 19 7 10 1015.1 - 0.8
23/07:30am 23.1 24.6 20.6 86 1.6 SSE 13 17 7 9 1014.9 - 0.8
23/07:00am 22.2 24.4 20.5 90 1.1 S 9 13 5 7 1015.1 - 0.8
23/06:30am 22.0 23.8 20.3 90 1.1 SSE 11 15 6 8 1014.6 - 0.8
23/06:00am 22.0 22.9 20.1 89 1.2 S 15 20 8 11 1014.7 1014.5 0.8
23/05:30am 22.1 23.1 20.2 89 1.2 S 15 20 8 11 1014.6 - 0.6
23/05:00am 22.0 23.4 20.3 90 1.1 S 13 17 7 9 1014.6 - 0.6
23/04:30am 22.1 23.4 20.2 89 1.2 SSE 13 17 7 9 1014.5 - 0.6
23/04:00am 22.1 23.6 20.6 91 1.0 S 13 15 7 8 1014.8 - 0.6
23/03:54am 21.9 23.8 20.5 92 0.9 S 11 15 6 8 1014.8 - 0.6
23/03:42am 21.7 23.6 20.5 93 0.8 S 11 13 6 7 1014.7 - 0.6
23/03:30am 21.6 23.4 20.4 93 0.8 S 11 15 6 8 1014.6 - 0.6
23/03:00am 21.7 23.1 20.3 92 0.9 S 13 15 7 8 1014.8 1014.7 0.6
23/02:30am 21.3 23.5 20.3 94 0.6 S 9 13 5 7 1014.8 - 0.6
23/02:00am 21.5 24.1 20.5 94 0.6 S 7 9 4 5 1015.1 - 0.6
23/01:30am 21.5 24.0 20.3 93 0.8 SSW 7 9 4 5 1015.4 - 0.4
23/01:00am 21.9 24.0 20.2 90 1.1 S 9 13 5 7 1015.6 - 0.2
23/12:30am 21.8 24.2 20.1 90 1.1 SSW 7 9 4 5 1016.0 - 0.2
23/12:00am 22.2 24.3 20.1 88 1.3 S 9 11 5 6 1016.3 1016.3 0.2
 
Date/Time
EST
Temp
°C
App
Temp
°C
Dew
Point
Rel
Hum
%
Delta-T
°C
Wind Press
QNH
hPa
Press
MSL
hPa
Rain
since 9 am
mm
Dir
 
Spd
km/h
Gust
km/h
Spd
kts
Gust
kts
22/11:30pm 22.0 23.7 20.1 89 1.2 S 11 15 6 8 1016.5 - 0.2
22/11:00pm 22.0 23.3 20.1 89 1.2 SSE 13 17 7 9 1016.5 - 0.2
22/10:30pm 22.2 24.3 20.1 88 1.4 S 9 13 5 7 1016.7 - 0.2
22/10:00pm 22.2 22.3 19.9 87 1.5 S 19 26 10 14 1016.7 - 0.2
22/09:30pm 22.6 22.8 19.4 82 2.0 SSE 17 19 9 10 1016.8 - 0.0
22/09:00pm 22.5 23.8 19.3 82 2.0 S 11 11 6 6 1017.1 1016.9 0.0
22/08:30pm 22.2 23.7 19.7 86 1.6 SSW 11 13 6 7 1016.9 - 0.0
22/08:00pm 22.5 25.4 19.9 85 1.7 S 4 7 2 4 1016.8 - 0.0
22/07:30pm 22.5 24.5 19.9 85 1.7 SSW 9 11 5 6 1016.8 - 0.0
22/07:01pm 22.4 24.8 20.1 87 1.5 SSW 7 9 4 5 1016.5 - 0.0
22/07:00pm 22.5 25.0 20.2 87 1.5 SSW 7 9 4 5 1016.5 - 0.0
22/06:42pm 22.5 25.0 20.2 87 1.5 SW 7 7 4 4 1016.4 - 0.0
22/06:30pm 22.5 24.9 20.0 86 1.6 SSW 7 9 4 5 1016.3 - 0.0
22/06:00pm 22.9 26.2 19.9 83 1.9 ESE 2 9 1 5 1016.0 1015.9 0.0
22/05:30pm 23.3 25.1 19.5 79 2.4 ESE 9 13 5 7 1015.8 - 0.0
22/05:00pm 24.1 25.9 19.6 76 2.9 ESE 9 13 5 7 1015.6 - 0.0
22/04:30pm 24.8 25.3 19.2 71 3.6 ESE 15 19 8 10 1015.5 - 0.0
22/04:00pm 25.3 25.2 18.7 67 4.2 ESE 17 26 9 14 1015.4 - 0.0
22/03:30pm 25.7 25.2 18.6 65 4.5 ESE 19 26 10 14 1015.5 - 0.0
22/03:00pm 26.1 26.0 20.0 69 4.0 ESE 20 28 11 15 1015.5 1015.4 0.0
22/02:30pm 26.5 26.0 19.1 64 4.8 ESE 20 26 11 14 1015.4 - 0.0
22/02:00pm 27.1 25.9 18.4 59 5.5 ESE 22 30 12 16 1015.5 - 0.0
22/01:30pm 26.9 26.2 18.2 59 5.5 SE 19 24 10 13 1015.8 - 0.0
22/01:00pm 27.4 26.7 18.7 59 5.6 ESE 20 32 11 17 1016.1 - 0.0
22/12:30pm 26.9 25.7 17.4 56 6.0 ESE 20 30 11 16 1016.2 - 0.0
22/12:00pm 27.0 25.9 18.6 60 5.4 ESE 22 33 12 18 1016.8 1016.7 0.0
22/11:30am 26.7 25.6 17.7 57 5.7 ESE 20 32 11 17 1017.2 - 0.0
22/11:00am 27.6 26.5 17.7 54 6.3 ESE 20 28 11 15 1017.7 - 0.0
22/10:30am 26.7 25.6 17.7 57 5.7 ESE 20 30 11 16 1017.9 - 0.0
22/10:00am 26.7 25.7 18.0 59 5.5 ESE 20 28 11 15 1018.4 - 0.0
22/09:30am 25.3 26.0 18.0 64 4.6 SSE 11 22 6 12 1018.5 - 0.0
22/09:00am 25.4 27.5 19.3 69 3.9 S 7 13 4 7 1018.5 1018.4 0.0
22/08:30am 23.6 24.8 18.3 72 3.3 S 9 13 5 7 1018.3 - 0.0
22/08:00am 21.9 23.2 19.3 85 1.7 SSW 11 13 6 7 1018.2 - 0.0

Other Formats:

Comma delimited format used in spreadsheet applications
http://www.bom.gov.au/fwo/IDQ60801/IDQ60801.94365.axf

JavaScript Object Notation format (JSON) in row-major order
http://www.bom.gov.au/fwo/IDQ60801/IDQ60801.94365.json